sensor_id;sensor_type;location;lat;lon;timestamp;P1;durP1;ratioP1;P2;durP2;ratioP2
2462;SDS011;1243;54.298;10.172;2023-06-22T00:01:28;7.93;;;4.63;;
2462;SDS011;1243;54.298;10.172;2023-06-22T00:03:54;4.70;;;3.90;;
2462;SDS011;1243;54.298;10.172;2023-06-22T00:09:07;4.77;;;4.37;;
2462;SDS011;1243;54.298;10.172;2023-06-22T00:11:35;4.53;;;4.13;;
2462;SDS011;1243;54.298;10.172;2023-06-22T00:14:02;4.90;;;4.30;;
2462;SDS011;1243;54.298;10.172;2023-06-22T00:16:31;6.23;;;4.40;;
2462;SDS011;1243;54.298;10.172;2023-06-22T00:18:58;6.07;;;3.60;;
2462;SDS011;1243;54.298;10.172;2023-06-22T00:21:36;4.83;;;3.97;;
2462;SDS011;1243;54.298;10.172;2023-06-22T00:24:02;4.33;;;4.03;;
2462;SDS011;1243;54.298;10.172;2023-06-22T00:26:31;5.40;;;4.90;;
2462;SDS011;1243;54.298;10.172;2023-06-22T00:28:57;4.53;;;4.13;;
2462;SDS011;1243;54.298;10.172;2023-06-22T00:31:23;4.40;;;4.00;;
2462;SDS011;1243;54.298;10.172;2023-06-22T00:33:52;4.10;;;3.73;;
2462;SDS011;1243;54.298;10.172;2023-06-22T00:36:18;5.33;;;3.43;;
2462;SDS011;1243;54.298;10.172;2023-06-22T00:38:44;4.73;;;4.27;;
2462;SDS011;1243;54.298;10.172;2023-06-22T00:41:10;5.33;;;3.43;;
2462;SDS011;1243;54.298;10.172;2023-06-22T00:43:35;4.50;;;4.10;;
2462;SDS011;1243;54.298;10.172;2023-06-22T00:46:03;5.53;;;4.30;;
2462;SDS011;1243;54.298;10.172;2023-06-22T00:48:32;4.53;;;4.13;;
2462;SDS011;1243;54.298;10.172;2023-06-22T00:50:58;4.27;;;3.97;;
2462;SDS011;1243;54.298;10.172;2023-06-22T00:53:24;4.77;;;4.30;;
2462;SDS011;1243;54.298;10.172;2023-06-22T00:55:51;4.20;;;3.80;;
2462;SDS011;1243;54.298;10.172;2023-06-22T00:58:17;9.40;;;5.17;;
2462;SDS011;1243;54.298;10.172;2023-06-22T01:00:47;7.57;;;4.07;;
2462;SDS011;1243;54.298;10.172;2023-06-22T01:03:13;4.97;;;4.50;;
2462;SDS011;1243;54.298;10.172;2023-06-22T01:05:39;5.43;;;4.20;;
2462;SDS011;1243;54.298;10.172;2023-06-22T01:16:26;8.50;;;4.47;;
2462;SDS011;1243;54.298;10.172;2023-06-22T01:18:57;5.10;;;4.43;;
2462;SDS011;1243;54.298;10.172;2023-06-22T01:21:30;5.73;;;4.07;;
2462;SDS011;1243;54.298;10.172;2023-06-22T01:29:59;5.53;;;4.80;;
2462;SDS011;1243;54.298;10.172;2023-06-22T01:32:30;5.03;;;4.50;;
2462;SDS011;1243;54.298;10.172;2023-06-22T01:35:01;5.50;;;5.00;;
2462;SDS011;1243;54.298;10.172;2023-06-22T01:37:38;7.40;;;4.47;;
2462;SDS011;1243;54.298;10.172;2023-06-22T01:40:04;7.10;;;4.60;;
2462;SDS011;1243;54.298;10.172;2023-06-22T01:42:33;5.03;;;4.60;;
2462;SDS011;1243;54.298;10.172;2023-06-22T01:45:00;4.77;;;4.30;;
2462;SDS011;1243;54.298;10.172;2023-06-22T01:47:28;5.60;;;4.97;;
2462;SDS011;1243;54.298;10.172;2023-06-22T01:49:55;6.17;;;4.80;;
2462;SDS011;1243;54.298;10.172;2023-06-22T01:52:21;5.77;;;5.27;;
2462;SDS011;1243;54.298;10.172;2023-06-22T01:54:47;9.27;;;5.03;;
2462;SDS011;1243;54.298;10.172;2023-06-22T01:57:13;6.83;;;4.47;;
2462;SDS011;1243;54.298;10.172;2023-06-22T02:02:11;5.90;;;4.57;;
2462;SDS011;1243;54.298;10.172;2023-06-22T02:04:44;6.93;;;4.67;;
2462;SDS011;1243;54.298;10.172;2023-06-22T02:11:38;5.80;;;4.70;;
2462;SDS011;1243;54.298;10.172;2023-06-22T02:13:46;5.90;;;5.30;;
2462;SDS011;1243;54.298;10.172;2023-06-22T02:16:14;4.93;;;4.53;;
2462;SDS011;1243;54.298;10.172;2023-06-22T02:18:48;5.20;;;4.70;;
2462;SDS011;1243;54.298;10.172;2023-06-22T02:24:46;7.47;;;5.70;;
2462;SDS011;1243;54.298;10.172;2023-06-22T02:27:26;7.30;;;5.33;;
2462;SDS011;1243;54.298;10.172;2023-06-22T02:29:52;4.97;;;4.57;;
2462;SDS011;1243;54.298;10.172;2023-06-22T02:32:18;6.10;;;5.10;;
2462;SDS011;1243;54.298;10.172;2023-06-22T02:34:44;6.00;;;5.07;;
2462;SDS011;1243;54.298;10.172;2023-06-22T02:37:13;4.60;;;4.20;;
2462;SDS011;1243;54.298;10.172;2023-06-22T02:39:42;10.43;;;5.30;;
2462;SDS011;1243;54.298;10.172;2023-06-22T02:42:08;5.90;;;5.30;;
2462;SDS011;1243;54.298;10.172;2023-06-22T02:44:36;5.70;;;5.20;;
2462;SDS011;1243;54.298;10.172;2023-06-22T02:47:02;6.67;;;6.07;;
2462;SDS011;1243;54.298;10.172;2023-06-22T02:52:04;5.27;;;4.70;;
2462;SDS011;1243;54.298;10.172;2023-06-22T02:54:30;5.20;;;4.80;;
2462;SDS011;1243;54.298;10.172;2023-06-22T02:56:56;8.90;;;5.57;;
2462;SDS011;1243;54.298;10.172;2023-06-22T02:59:22;6.03;;;5.47;;
2462;SDS011;1243;54.298;10.172;2023-06-22T03:01:51;5.57;;;5.07;;
2462;SDS011;1243;54.298;10.172;2023-06-22T03:04:17;6.60;;;6.00;;
2462;SDS011;1243;54.298;10.172;2023-06-22T03:06:43;6.73;;;6.13;;
2462;SDS011;1243;54.298;10.172;2023-06-22T03:09:09;6.27;;;5.67;;
2462;SDS011;1243;54.298;10.172;2023-06-22T03:11:35;6.40;;;5.80;;
2462;SDS011;1243;54.298;10.172;2023-06-22T03:14:01;7.70;;;6.00;;
2462;SDS011;1243;54.298;10.172;2023-06-22T03:19:36;6.80;;;6.10;;
2462;SDS011;1243;54.298;10.172;2023-06-22T03:22:02;5.87;;;4.80;;
2462;SDS011;1243;54.298;10.172;2023-06-22T03:24:29;7.13;;;5.70;;
2462;SDS011;1243;54.298;10.172;2023-06-22T03:26:55;8.30;;;5.93;;
2462;SDS011;1243;54.298;10.172;2023-06-22T03:29:34;7.17;;;5.47;;
2462;SDS011;1243;54.298;10.172;2023-06-22T03:31:59;7.80;;;5.73;;
2462;SDS011;1243;54.298;10.172;2023-06-22T03:34:25;5.87;;;5.37;;
2462;SDS011;1243;54.298;10.172;2023-06-22T03:36:51;5.83;;;5.07;;
2462;SDS011;1243;54.298;10.172;2023-06-22T03:39:17;6.20;;;5.60;;
2462;SDS011;1243;54.298;10.172;2023-06-22T03:41:43;6.23;;;5.63;;
2462;SDS011;1243;54.298;10.172;2023-06-22T03:44:20;6.73;;;5.50;;
2462;SDS011;1243;54.298;10.172;2023-06-22T03:46:49;6.80;;;5.37;;
2462;SDS011;1243;54.298;10.172;2023-06-22T03:49:15;8.83;;;6.40;;
2462;SDS011;1243;54.298;10.172;2023-06-22T03:51:41;8.10;;;5.90;;
2462;SDS011;1243;54.298;10.172;2023-06-22T03:54:07;8.00;;;5.63;;
2462;SDS011;1243;54.298;10.172;2023-06-22T03:56:36;7.97;;;5.30;;
2462;SDS011;1243;54.298;10.172;2023-06-22T03:59:03;7.73;;;5.47;;
2462;SDS011;1243;54.298;10.172;2023-06-22T04:01:29;6.47;;;5.90;;
2462;SDS011;1243;54.298;10.172;2023-06-22T04:03:55;5.30;;;4.80;;
2462;SDS011;1243;54.298;10.172;2023-06-22T04:06:21;5.57;;;5.00;;
2462;SDS011;1243;54.298;10.172;2023-06-22T04:08:47;5.67;;;5.03;;
2462;SDS011;1243;54.298;10.172;2023-06-22T04:11:16;9.03;;;6.40;;
2462;SDS011;1243;54.298;10.172;2023-06-22T04:13:43;6.33;;;5.47;;
2462;SDS011;1243;54.298;10.172;2023-06-22T04:16:09;6.00;;;5.10;;
2462;SDS011;1243;54.298;10.172;2023-06-22T04:18:35;5.00;;;4.50;;
2462;SDS011;1243;54.298;10.172;2023-06-22T04:21:02;6.47;;;5.50;;
2462;SDS011;1243;54.298;10.172;2023-06-22T04:23:28;6.80;;;5.87;;
2462;SDS011;1243;54.298;10.172;2023-06-22T04:25:54;4.80;;;4.40;;
2462;SDS011;1243;54.298;10.172;2023-06-22T04:28:21;6.03;;;5.53;;
2462;SDS011;1243;54.298;10.172;2023-06-22T04:30:47;7.40;;;6.40;;
2462;SDS011;1243;54.298;10.172;2023-06-22T04:33:14;6.23;;;5.60;;
2462;SDS011;1243;54.298;10.172;2023-06-22T04:35:49;6.47;;;5.57;;
2462;SDS011;1243;54.298;10.172;2023-06-22T04:38:35;8.63;;;6.40;;
2462;SDS011;1243;54.298;10.172;2023-06-22T04:41:01;6.63;;;5.93;;
2462;SDS011;1243;54.298;10.172;2023-06-22T04:43:30;6.97;;;5.20;;
2462;SDS011;1243;54.298;10.172;2023-06-22T04:45:59;6.23;;;5.50;;
2462;SDS011;1243;54.298;10.172;2023-06-22T04:48:31;6.90;;;6.20;;
2462;SDS011;1243;54.298;10.172;2023-06-22T04:51:41;9.40;;;6.97;;
2462;SDS011;1243;54.298;10.172;2023-06-22T04:54:08;8.63;;;6.70;;
2462;SDS011;1243;54.298;10.172;2023-06-22T04:56:56;6.57;;;5.87;;
2462;SDS011;1243;54.298;10.172;2023-06-22T04:59:22;11.50;;;5.90;;
2462;SDS011;1243;54.298;10.172;2023-06-22T05:02:11;8.13;;;7.33;;
2462;SDS011;1243;54.298;10.172;2023-06-22T05:04:37;7.53;;;6.63;;
2462;SDS011;1243;54.298;10.172;2023-06-22T05:07:06;9.40;;;8.17;;
2462;SDS011;1243;54.298;10.172;2023-06-22T05:09:32;9.50;;;8.60;;
2462;SDS011;1243;54.298;10.172;2023-06-22T05:12:08;9.17;;;7.90;;
2462;SDS011;1243;54.298;10.172;2023-06-22T05:14:34;7.87;;;6.80;;
2462;SDS011;1243;54.298;10.172;2023-06-22T05:17:00;10.03;;;7.50;;
2462;SDS011;1243;54.298;10.172;2023-06-22T05:19:28;9.27;;;7.37;;
2462;SDS011;1243;54.298;10.172;2023-06-22T05:22:07;12.60;;;8.57;;
2462;SDS011;1243;54.298;10.172;2023-06-22T05:24:33;9.60;;;7.43;;
2462;SDS011;1243;54.298;10.172;2023-06-22T05:27:02;9.43;;;7.53;;
2462;SDS011;1243;54.298;10.172;2023-06-22T05:29:28;9.83;;;7.17;;
2462;SDS011;1243;54.298;10.172;2023-06-22T05:31:54;9.47;;;8.47;;
2462;SDS011;1243;54.298;10.172;2023-06-22T05:34:20;10.90;;;8.00;;
2462;SDS011;1243;54.298;10.172;2023-06-22T05:36:46;8.60;;;7.53;;
2462;SDS011;1243;54.298;10.172;2023-06-22T05:39:12;9.70;;;8.37;;
2462;SDS011;1243;54.298;10.172;2023-06-22T05:49:13;8.20;;;6.87;;
2462;SDS011;1243;54.298;10.172;2023-06-22T05:54:41;6.13;;;5.53;;
2462;SDS011;1243;54.298;10.172;2023-06-22T05:57:10;9.07;;;5.47;;
2462;SDS011;1243;54.298;10.172;2023-06-22T05:59:36;6.40;;;5.10;;
2462;SDS011;1243;54.298;10.172;2023-06-22T06:02:02;5.40;;;4.90;;
2462;SDS011;1243;54.298;10.172;2023-06-22T06:04:28;5.23;;;4.10;;
2462;SDS011;1243;54.298;10.172;2023-06-22T06:06:54;5.33;;;4.67;;
2462;SDS011;1243;54.298;10.172;2023-06-22T06:09:20;6.63;;;4.20;;
2462;SDS011;1243;54.298;10.172;2023-06-22T06:11:48;4.70;;;4.30;;
2462;SDS011;1243;54.298;10.172;2023-06-22T06:14:25;8.67;;;4.20;;
2462;SDS011;1243;54.298;10.172;2023-06-22T06:16:51;3.97;;;3.60;;
2462;SDS011;1243;54.298;10.172;2023-06-22T06:19:17;4.53;;;3.27;;
2462;SDS011;1243;54.298;10.172;2023-06-22T06:21:43;4.43;;;3.20;;
2462;SDS011;1243;54.298;10.172;2023-06-22T06:24:09;5.00;;;3.47;;
2462;SDS011;1243;54.298;10.172;2023-06-22T06:26:35;4.30;;;3.90;;
2462;SDS011;1243;54.298;10.172;2023-06-22T06:29:16;7.10;;;3.10;;
2462;SDS011;1243;54.298;10.172;2023-06-22T06:31:45;3.33;;;3.13;;
2462;SDS011;1243;54.298;10.172;2023-06-22T06:34:18;5.63;;;3.70;;
2462;SDS011;1243;54.298;10.172;2023-06-22T06:36:47;4.67;;;3.70;;
2462;SDS011;1243;54.298;10.172;2023-06-22T06:39:16;4.00;;;3.70;;
2462;SDS011;1243;54.298;10.172;2023-06-22T06:41:42;6.20;;;3.17;;
2462;SDS011;1243;54.298;10.172;2023-06-22T06:44:08;4.03;;;2.97;;
2462;SDS011;1243;54.298;10.172;2023-06-22T06:46:34;4.00;;;3.47;;
2462;SDS011;1243;54.298;10.172;2023-06-22T06:52:35;5.13;;;3.20;;
2462;SDS011;1243;54.298;10.172;2023-06-22T06:55:01;5.50;;;2.80;;
2462;SDS011;1243;54.298;10.172;2023-06-22T06:57:42;3.30;;;2.80;;
2462;SDS011;1243;54.298;10.172;2023-06-22T07:00:10;9.00;;;3.57;;
2462;SDS011;1243;54.298;10.172;2023-06-22T07:03:05;3.30;;;2.67;;
2462;SDS011;1243;54.298;10.172;2023-06-22T07:05:32;2.67;;;2.40;;
2462;SDS011;1243;54.298;10.172;2023-06-22T07:07:58;2.97;;;2.40;;
2462;SDS011;1243;54.298;10.172;2023-06-22T07:10:24;4.30;;;2.43;;
2462;SDS011;1243;54.298;10.172;2023-06-22T07:12:50;3.03;;;2.73;;
2462;SDS011;1243;54.298;10.172;2023-06-22T07:15:16;3.07;;;2.53;;
2462;SDS011;1243;54.298;10.172;2023-06-22T07:17:45;3.20;;;2.90;;
2462;SDS011;1243;54.298;10.172;2023-06-22T07:20:11;5.20;;;3.30;;
2462;SDS011;1243;54.298;10.172;2023-06-22T07:22:39;3.83;;;2.70;;
2462;SDS011;1243;54.298;10.172;2023-06-22T07:25:08;3.47;;;3.17;;
2462;SDS011;1243;54.298;10.172;2023-06-22T07:27:38;5.20;;;2.70;;
2462;SDS011;1243;54.298;10.172;2023-06-22T07:30:08;6.20;;;2.60;;
2462;SDS011;1243;54.298;10.172;2023-06-22T07:32:35;3.17;;;2.70;;
2462;SDS011;1243;54.298;10.172;2023-06-22T07:35:01;3.30;;;2.20;;
2462;SDS011;1243;54.298;10.172;2023-06-22T07:43:37;3.07;;;2.60;;
2462;SDS011;1243;54.298;10.172;2023-06-22T07:46:03;3.10;;;2.70;;
2462;SDS011;1243;54.298;10.172;2023-06-22T07:48:29;3.33;;;2.80;;
2462;SDS011;1243;54.298;10.172;2023-06-22T07:50:58;5.87;;;2.60;;
2462;SDS011;1243;54.298;10.172;2023-06-22T07:53:44;3.83;;;2.40;;
2462;SDS011;1243;54.298;10.172;2023-06-22T07:56:10;3.43;;;2.80;;
2462;SDS011;1243;54.298;10.172;2023-06-22T07:58:47;2.43;;;2.23;;
2462;SDS011;1243;54.298;10.172;2023-06-22T08:01:16;6.30;;;2.73;;
2462;SDS011;1243;54.298;10.172;2023-06-22T08:03:44;4.27;;;2.73;;
2462;SDS011;1243;54.298;10.172;2023-06-22T08:06:10;3.20;;;2.50;;
2462;SDS011;1243;54.298;10.172;2023-06-22T08:08:36;7.20;;;2.77;;
2462;SDS011;1243;54.298;10.172;2023-06-22T08:11:05;3.13;;;2.43;;
2462;SDS011;1243;54.298;10.172;2023-06-22T08:13:40;11.33;;;3.10;;
2462;SDS011;1243;54.298;10.172;2023-06-22T08:16:06;5.77;;;2.70;;
2462;SDS011;1243;54.298;10.172;2023-06-22T08:18:32;2.23;;;1.97;;
2462;SDS011;1243;54.298;10.172;2023-06-22T08:21:04;2.80;;;2.60;;
2462;SDS011;1243;54.298;10.172;2023-06-22T08:23:30;3.57;;;2.67;;
2462;SDS011;1243;54.298;10.172;2023-06-22T08:25:56;3.77;;;2.90;;
2462;SDS011;1243;54.298;10.172;2023-06-22T08:28:22;2.87;;;2.60;;
2462;SDS011;1243;54.298;10.172;2023-06-22T08:30:48;3.10;;;2.10;;
2462;SDS011;1243;54.298;10.172;2023-06-22T08:33:14;2.90;;;2.60;;
2462;SDS011;1243;54.298;10.172;2023-06-22T08:35:40;3.40;;;2.20;;
2462;SDS011;1243;54.298;10.172;2023-06-22T08:38:08;3.40;;;2.40;;
2462;SDS011;1243;54.298;10.172;2023-06-22T08:40:35;2.57;;;2.37;;
2462;SDS011;1243;54.298;10.172;2023-06-22T08:43:01;2.83;;;2.43;;
2462;SDS011;1243;54.298;10.172;2023-06-22T08:45:27;2.30;;;2.20;;
2462;SDS011;1243;54.298;10.172;2023-06-22T08:47:53;4.87;;;2.63;;
2462;SDS011;1243;54.298;10.172;2023-06-22T08:50:19;2.80;;;2.60;;
2462;SDS011;1243;54.298;10.172;2023-06-22T08:52:45;3.43;;;2.67;;
2462;SDS011;1243;54.298;10.172;2023-06-22T08:55:12;4.00;;;3.47;;
2462;SDS011;1243;54.298;10.172;2023-06-22T08:57:39;4.20;;;2.30;;
2462;SDS011;1243;54.298;10.172;2023-06-22T09:00:06;3.10;;;2.30;;
2462;SDS011;1243;54.298;10.172;2023-06-22T09:02:43;4.10;;;2.50;;
2462;SDS011;1243;54.298;10.172;2023-06-22T09:05:09;3.70;;;2.60;;
2462;SDS011;1243;54.298;10.172;2023-06-22T09:07:58;2.93;;;2.73;;
2462;SDS011;1243;54.298;10.172;2023-06-22T09:10:24;2.87;;;2.67;;
2462;SDS011;1243;54.298;10.172;2023-06-22T09:12:50;3.00;;;2.77;;
2462;SDS011;1243;54.298;10.172;2023-06-22T09:15:17;3.73;;;2.87;;
2462;SDS011;1243;54.298;10.172;2023-06-22T09:17:43;4.10;;;2.67;;
2462;SDS011;1243;54.298;10.172;2023-06-22T09:20:11;3.43;;;2.13;;
2462;SDS011;1243;54.298;10.172;2023-06-22T09:22:42;2.70;;;2.20;;
2462;SDS011;1243;54.298;10.172;2023-06-22T09:25:08;3.20;;;2.80;;
2462;SDS011;1243;54.298;10.172;2023-06-22T09:27:34;3.30;;;3.00;;
2462;SDS011;1243;54.298;10.172;2023-06-22T09:30:00;3.17;;;2.17;;
2462;SDS011;1243;54.298;10.172;2023-06-22T09:32:26;4.03;;;3.40;;
2462;SDS011;1243;54.298;10.172;2023-06-22T09:34:52;2.60;;;2.40;;
2462;SDS011;1243;54.298;10.172;2023-06-22T09:37:21;2.27;;;2.00;;
2462;SDS011;1243;54.298;10.172;2023-06-22T09:39:47;2.67;;;2.40;;
2462;SDS011;1243;54.298;10.172;2023-06-22T09:42:13;2.70;;;2.20;;
2462;SDS011;1243;54.298;10.172;2023-06-22T09:44:38;2.47;;;2.27;;
2462;SDS011;1243;54.298;10.172;2023-06-22T09:47:04;2.80;;;2.40;;
2462;SDS011;1243;54.298;10.172;2023-06-22T09:49:30;2.00;;;1.90;;
2462;SDS011;1243;54.298;10.172;2023-06-22T09:51:57;3.03;;;2.77;;
2462;SDS011;1243;54.298;10.172;2023-06-22T09:54:23;2.67;;;2.47;;
2462;SDS011;1243;54.298;10.172;2023-06-22T09:56:48;2.30;;;1.77;;
2462;SDS011;1243;54.298;10.172;2023-06-22T09:59:14;11.60;;;2.07;;
2462;SDS011;1243;54.298;10.172;2023-06-22T10:01:40;2.43;;;2.07;;
2462;SDS011;1243;54.298;10.172;2023-06-22T10:04:06;2.20;;;2.00;;
2462;SDS011;1243;54.298;10.172;2023-06-22T10:06:31;2.63;;;2.40;;
2462;SDS011;1243;54.298;10.172;2023-06-22T10:08:57;2.30;;;2.10;;
2462;SDS011;1243;54.298;10.172;2023-06-22T10:11:23;2.90;;;1.90;;
2462;SDS011;1243;54.298;10.172;2023-06-22T10:13:54;3.20;;;2.10;;
2462;SDS011;1243;54.298;10.172;2023-06-22T10:16:20;2.50;;;2.17;;
2462;SDS011;1243;54.298;10.172;2023-06-22T10:18:45;2.30;;;2.10;;
2462;SDS011;1243;54.298;10.172;2023-06-22T10:21:11;2.00;;;1.80;;
2462;SDS011;1243;54.298;10.172;2023-06-22T10:23:37;2.90;;;2.20;;
2462;SDS011;1243;54.298;10.172;2023-06-22T10:26:02;2.13;;;1.73;;
2462;SDS011;1243;54.298;10.172;2023-06-22T10:28:28;2.60;;;2.23;;
2462;SDS011;1243;54.298;10.172;2023-06-22T10:30:54;2.33;;;2.00;;
2462;SDS011;1243;54.298;10.172;2023-06-22T10:33:19;9.00;;;2.10;;
2462;SDS011;1243;54.298;10.172;2023-06-22T10:35:45;2.00;;;1.90;;
2462;SDS011;1243;54.298;10.172;2023-06-22T10:38:11;2.90;;;2.33;;
2462;SDS011;1243;54.298;10.172;2023-06-22T10:40:36;2.20;;;1.57;;
2462;SDS011;1243;54.298;10.172;2023-06-22T10:43:04;3.93;;;2.60;;
2462;SDS011;1243;54.298;10.172;2023-06-22T10:45:30;5.00;;;2.40;;
2462;SDS011;1243;54.298;10.172;2023-06-22T10:47:56;2.50;;;1.87;;
2462;SDS011;1243;54.298;10.172;2023-06-22T10:50:21;2.53;;;2.10;;
2462;SDS011;1243;54.298;10.172;2023-06-22T10:52:49;5.13;;;3.80;;
2462;SDS011;1243;54.298;10.172;2023-06-22T10:55:14;2.60;;;2.10;;
2462;SDS011;1243;54.298;10.172;2023-06-22T10:57:40;2.87;;;2.10;;
2462;SDS011;1243;54.298;10.172;2023-06-22T11:00:08;2.17;;;2.03;;
2462;SDS011;1243;54.298;10.172;2023-06-22T11:02:34;2.30;;;2.10;;
2462;SDS011;1243;54.298;10.172;2023-06-22T11:04:59;3.40;;;2.50;;
2462;SDS011;1243;54.298;10.172;2023-06-22T11:07:25;3.77;;;2.43;;
2462;SDS011;1243;54.298;10.172;2023-06-22T11:09:53;2.23;;;2.03;;
2462;SDS011;1243;54.298;10.172;2023-06-22T11:12:19;3.17;;;2.07;;
2462;SDS011;1243;54.298;10.172;2023-06-22T11:14:45;3.73;;;2.20;;
2462;SDS011;1243;54.298;10.172;2023-06-22T11:17:11;5.70;;;1.97;;
2462;SDS011;1243;54.298;10.172;2023-06-22T11:19:36;2.50;;;2.40;;
2462;SDS011;1243;54.298;10.172;2023-06-22T11:22:02;2.77;;;2.03;;
2462;SDS011;1243;54.298;10.172;2023-06-22T11:24:28;2.17;;;1.80;;
2462;SDS011;1243;54.298;10.172;2023-06-22T11:26:54;3.30;;;2.07;;
2462;SDS011;1243;54.298;10.172;2023-06-22T11:29:19;2.43;;;2.20;;
2462;SDS011;1243;54.298;10.172;2023-06-22T11:31:45;2.90;;;2.10;;
2462;SDS011;1243;54.298;10.172;2023-06-22T11:34:11;1.70;;;1.57;;
2462;SDS011;1243;54.298;10.172;2023-06-22T11:36:36;2.20;;;2.00;;
2462;SDS011;1243;54.298;10.172;2023-06-22T11:39:02;5.87;;;2.60;;
2462;SDS011;1243;54.298;10.172;2023-06-22T11:41:28;3.30;;;2.40;;
2462;SDS011;1243;54.298;10.172;2023-06-22T11:43:54;2.40;;;2.00;;
2462;SDS011;1243;54.298;10.172;2023-06-22T11:46:19;2.37;;;2.10;;
2462;SDS011;1243;54.298;10.172;2023-06-22T11:48:45;7.33;;;2.30;;
2462;SDS011;1243;54.298;10.172;2023-06-22T11:51:11;2.10;;;1.90;;
2462;SDS011;1243;54.298;10.172;2023-06-22T11:53:37;4.30;;;2.63;;
2462;SDS011;1243;54.298;10.172;2023-06-22T11:56:02;2.47;;;1.87;;
2462;SDS011;1243;54.298;10.172;2023-06-22T11:58:28;2.23;;;2.10;;
2462;SDS011;1243;54.298;10.172;2023-06-22T12:00:54;3.83;;;2.27;;
2462;SDS011;1243;54.298;10.172;2023-06-22T12:03:20;2.30;;;2.10;;
2462;SDS011;1243;54.298;10.172;2023-06-22T12:05:46;2.20;;;2.00;;
2462;SDS011;1243;54.298;10.172;2023-06-22T12:08:12;2.03;;;1.93;;
2462;SDS011;1243;54.298;10.172;2023-06-22T12:10:39;2.27;;;2.17;;
2462;SDS011;1243;54.298;10.172;2023-06-22T12:13:04;2.23;;;2.03;;
2462;SDS011;1243;54.298;10.172;2023-06-22T12:15:30;2.50;;;2.30;;
2462;SDS011;1243;54.298;10.172;2023-06-22T12:17:56;3.23;;;2.73;;
2462;SDS011;1243;54.298;10.172;2023-06-22T12:20:21;3.40;;;2.30;;
2462;SDS011;1243;54.298;10.172;2023-06-22T12:22:47;1.83;;;1.70;;
2462;SDS011;1243;54.298;10.172;2023-06-22T12:25:14;2.30;;;1.90;;
2462;SDS011;1243;54.298;10.172;2023-06-22T12:27:40;2.50;;;2.10;;
2462;SDS011;1243;54.298;10.172;2023-06-22T12:30:06;3.93;;;1.93;;
2462;SDS011;1243;54.298;10.172;2023-06-22T12:32:32;3.63;;;1.90;;
2462;SDS011;1243;54.298;10.172;2023-06-22T12:34:57;1.93;;;1.73;;
2462;SDS011;1243;54.298;10.172;2023-06-22T12:37:24;2.00;;;1.70;;
2462;SDS011;1243;54.298;10.172;2023-06-22T12:39:50;3.07;;;1.93;;
2462;SDS011;1243;54.298;10.172;2023-06-22T12:42:16;1.40;;;1.30;;
2462;SDS011;1243;54.298;10.172;2023-06-22T12:44:41;1.93;;;1.73;;
2462;SDS011;1243;54.298;10.172;2023-06-22T12:47:07;1.93;;;1.73;;
2462;SDS011;1243;54.298;10.172;2023-06-22T12:49:34;2.87;;;1.97;;
2462;SDS011;1243;54.298;10.172;2023-06-22T12:52:00;2.13;;;1.50;;
2462;SDS011;1243;54.298;10.172;2023-06-22T12:54:27;2.50;;;1.90;;
2462;SDS011;1243;54.298;10.172;2023-06-22T12:56:54;2.23;;;1.63;;
2462;SDS011;1243;54.298;10.172;2023-06-22T12:59:20;1.60;;;1.50;;
2462;SDS011;1243;54.298;10.172;2023-06-22T13:01:45;4.60;;;2.27;;
2462;SDS011;1243;54.298;10.172;2023-06-22T13:04:11;2.10;;;1.70;;
2462;SDS011;1243;54.298;10.172;2023-06-22T13:06:40;3.43;;;1.70;;
2462;SDS011;1243;54.298;10.172;2023-06-22T13:09:06;2.23;;;1.90;;
2462;SDS011;1243;54.298;10.172;2023-06-22T13:11:32;3.80;;;2.00;;
2462;SDS011;1243;54.298;10.172;2023-06-22T13:13:57;1.50;;;1.40;;
2462;SDS011;1243;54.298;10.172;2023-06-22T13:16:23;2.63;;;1.60;;
2462;SDS011;1243;54.298;10.172;2023-06-22T13:18:49;1.87;;;1.63;;
2462;SDS011;1243;54.298;10.172;2023-06-22T13:21:14;1.83;;;1.73;;
2462;SDS011;1243;54.298;10.172;2023-06-22T13:23:40;1.60;;;1.50;;
2462;SDS011;1243;54.298;10.172;2023-06-22T13:26:06;1.80;;;1.70;;
2462;SDS011;1243;54.298;10.172;2023-06-22T13:28:32;2.67;;;1.60;;
2462;SDS011;1243;54.298;10.172;2023-06-22T13:30:57;2.27;;;1.60;;
2462;SDS011;1243;54.298;10.172;2023-06-22T13:33:23;2.30;;;1.43;;
2462;SDS011;1243;54.298;10.172;2023-06-22T13:35:49;2.60;;;1.50;;
2462;SDS011;1243;54.298;10.172;2023-06-22T13:38:15;2.13;;;1.80;;
2462;SDS011;1243;54.298;10.172;2023-06-22T13:40:40;2.77;;;2.10;;
2462;SDS011;1243;54.298;10.172;2023-06-22T13:43:06;3.73;;;2.00;;
2462;SDS011;1243;54.298;10.172;2023-06-22T13:45:32;2.07;;;1.37;;
2462;SDS011;1243;54.298;10.172;2023-06-22T13:47:58;1.50;;;1.40;;
2462;SDS011;1243;54.298;10.172;2023-06-22T13:50:24;2.47;;;1.77;;
2462;SDS011;1243;54.298;10.172;2023-06-22T13:52:49;3.73;;;1.70;;
2462;SDS011;1243;54.298;10.172;2023-06-22T13:55:15;2.40;;;1.73;;
2462;SDS011;1243;54.298;10.172;2023-06-22T13:57:41;2.17;;;1.70;;
2462;SDS011;1243;54.298;10.172;2023-06-22T14:00:07;2.10;;;1.67;;
2462;SDS011;1243;54.298;10.172;2023-06-22T14:02:33;2.47;;;1.93;;
2462;SDS011;1243;54.298;10.172;2023-06-22T14:04:59;1.77;;;1.63;;
2462;SDS011;1243;54.298;10.172;2023-06-22T14:07:25;2.10;;;1.83;;
2462;SDS011;1243;54.298;10.172;2023-06-22T14:09:51;1.90;;;1.80;;
2462;SDS011;1243;54.298;10.172;2023-06-22T14:12:17;2.43;;;2.13;;
2462;SDS011;1243;54.298;10.172;2023-06-22T14:14:43;2.87;;;1.97;;
2462;SDS011;1243;54.298;10.172;2023-06-22T14:17:09;1.80;;;1.70;;
2462;SDS011;1243;54.298;10.172;2023-06-22T14:19:35;3.77;;;1.90;;
2462;SDS011;1243;54.298;10.172;2023-06-22T14:22:01;2.30;;;2.10;;
2462;SDS011;1243;54.298;10.172;2023-06-22T14:24:27;3.43;;;2.80;;
2462;SDS011;1243;54.298;10.172;2023-06-22T14:26:53;3.00;;;2.33;;
2462;SDS011;1243;54.298;10.172;2023-06-22T14:29:20;2.00;;;1.80;;
2462;SDS011;1243;54.298;10.172;2023-06-22T14:31:46;2.50;;;2.10;;
2462;SDS011;1243;54.298;10.172;2023-06-22T14:34:13;2.43;;;2.10;;
2462;SDS011;1243;54.298;10.172;2023-06-22T14:36:38;4.13;;;2.20;;
2462;SDS011;1243;54.298;10.172;2023-06-22T14:39:04;2.43;;;1.50;;
2462;SDS011;1243;54.298;10.172;2023-06-22T14:41:30;2.37;;;2.17;;
2462;SDS011;1243;54.298;10.172;2023-06-22T14:43:56;1.70;;;1.60;;
2462;SDS011;1243;54.298;10.172;2023-06-22T14:46:22;1.87;;;1.77;;
2462;SDS011;1243;54.298;10.172;2023-06-22T14:48:48;1.93;;;1.50;;
2462;SDS011;1243;54.298;10.172;2023-06-22T14:51:14;5.40;;;1.87;;
2462;SDS011;1243;54.298;10.172;2023-06-22T14:53:40;1.50;;;1.37;;
2462;SDS011;1243;54.298;10.172;2023-06-22T14:56:06;3.70;;;1.83;;
2462;SDS011;1243;54.298;10.172;2023-06-22T14:58:33;1.50;;;1.40;;
2462;SDS011;1243;54.298;10.172;2023-06-22T15:01:02;1.93;;;1.50;;
2462;SDS011;1243;54.298;10.172;2023-06-22T15:03:29;1.77;;;1.53;;
2462;SDS011;1243;54.298;10.172;2023-06-22T15:05:57;1.73;;;1.63;;
2462;SDS011;1243;54.298;10.172;2023-06-22T15:08:23;2.60;;;1.50;;
2462;SDS011;1243;54.298;10.172;2023-06-22T15:10:51;6.60;;;2.07;;
2462;SDS011;1243;54.298;10.172;2023-06-22T15:13:17;1.60;;;1.50;;
2462;SDS011;1243;54.298;10.172;2023-06-22T15:15:46;1.70;;;1.60;;
2462;SDS011;1243;54.298;10.172;2023-06-22T15:18:13;1.87;;;1.20;;
2462;SDS011;1243;54.298;10.172;2023-06-22T15:20:41;1.90;;;1.50;;
2462;SDS011;1243;54.298;10.172;2023-06-22T15:23:10;1.50;;;1.30;;
2462;SDS011;1243;54.298;10.172;2023-06-22T15:25:39;1.80;;;1.30;;
2462;SDS011;1243;54.298;10.172;2023-06-22T15:28:25;1.77;;;1.33;;
2462;SDS011;1243;54.298;10.172;2023-06-22T15:31:14;1.83;;;1.43;;
2462;SDS011;1243;54.298;10.172;2023-06-22T15:33:43;1.93;;;1.83;;
2462;SDS011;1243;54.298;10.172;2023-06-22T15:36:09;2.20;;;1.20;;
2462;SDS011;1243;54.298;10.172;2023-06-22T15:38:35;1.27;;;1.17;;
2462;SDS011;1243;54.298;10.172;2023-06-22T15:41:00;1.90;;;1.50;;
2462;SDS011;1243;54.298;10.172;2023-06-22T15:43:27;1.50;;;1.40;;
2462;SDS011;1243;54.298;10.172;2023-06-22T15:45:53;2.20;;;1.23;;
2462;SDS011;1243;54.298;10.172;2023-06-22T15:48:20;5.50;;;1.40;;
2462;SDS011;1243;54.298;10.172;2023-06-22T15:50:46;1.40;;;1.30;;
2462;SDS011;1243;54.298;10.172;2023-06-22T15:53:15;2.50;;;1.63;;
2462;SDS011;1243;54.298;10.172;2023-06-22T15:56:01;1.70;;;1.30;;